Аэропорт: Сары-Арка. Караганда

ICAO: UAKK

METAR:
2024-05-18 15:00:00
UAKK 181500Z 33003MPS 9999 -SHRA BKN050CB 15/14 Q1005 NOSIG RMK QFE707/0943
TAF:
2024-05-18 11:04:00
TAF UAKK 181104Z 1812/1912 15005MPS 9999 BKN030 BKN100 TX18/1909Z TN11/1901Z 
  TEMPO 1812/1818 VRB16MPS 3100 -TSRA SQ BKN030CB 
  BECMG 1818/1820 22009MPS 
  TEMPO 1818/1823 VRB20MPS 2000 TSRA SQ BKN011 BKN020CB 
  TEMPO 1823/1906 24013MPS 5000 -SHRA BKN007 BKN020CB 
  TEMPO 1906/1912 23014MPS 5000 -SHRA BKN015CB